עמוד ראשי
METAR-TAF:

METAR-TAF

שדות תעופה :

La Palma, ספרד

קו רוחב: 28-37N, קו אורך: 017-45W, גובה: 29מטר

תצפית מזג אוויר נוכחית

הדו"ח נערך לפני 16דקות, בשעה 17:00 UTC
רוח 15קשר מכיוון צפון/צפון-מזרח, משתנה בין צפון ו מזרח/צפון-מזרח
טמפרטורת 22 צלסיוס
לחות 78%
לחץ 1015 hPa
ראות 10 קילומטר או יותר
מעט עננים בגובה 2500רגל
עננים בינוניים בגובה 3000רגל

METAR: GCLA 241700Z 03015KT 350V060 9999 FEW025 BKN030 22/18 Q1015

זמן: 18:16 (17:16 UTC)

תחזית

הדו"ח נערך לפני 3 שעות ו 16דקות, בשעה 14:00 UTC
תחזית בתוקף מ 24 ב 15 UTC עד 25 ב 15 UTC
רוח 15קשר מכיוון צפון/צפון-מזרח
ראות 10 קילומטר או יותר
עננים פזורים בגובה 2500רגל
הסתברות 30% :
זמנית מ -
24 ב 15 UTC עד 24 ב 19 UTC
רוח 15קשר מכיוון צפון-מזרח עם משבים עד 25קשר
הסתברות 40% :
זמנית מ -
24 ב 23 UTC עד 25 ב 08 UTC
רוח 8קשר מכיוון צפון/צפון-מערב

TAF: GCLA 241400Z 2415/2515 03015KT 9999 SCT025 TX23/2514Z TN20/2506Z PROB30 TEMPO 2415/2419 04015G25KT PROB40 TEMPO 2423/2508 33008KT

תצפיות ותחזיות מזג אוויר לגבי יותר מ- 4,000 שדות תעופה ברחבי העולם. דוחות METAR ו- TAF.

התחנות הזמינות מסומנות בנקודות צהובות ואדומות על גבי המפה.

העבר את העכבר לנקודה הצבעונית על מנת לראות את שם התחנה.

לאחר מכן, לחץ כדי לראות את תוכן ואת תחזיות מזג האוויר.

כדי לשנות את המפה: לחץ על הכפתורים הירוקים עם הפלוס השחור כדי להתקרב; על הכפתור הירוק עם המקף כדי להתרחק; או בחיצים הירוקים למפות סמוכות.


METAR-TAF: